Terminal Aerodrome Forecast
Issued by NWS

Current Version | Previous Version | Text Only | Print | Product List | Glossary On
Versions: 1 2 3 4 5 6 7 8 9 10 11 12 13 14 15 16 17 18 19 20 21 22 23 24 25 26 27 28 29 30 31 32 33
000
FTUS46 KEKA 011300 CCB
TAFCEC
TAF COR
KCEC 011300Z 0112/0212 VRB03KT P6SM OVC005
     FM011700 17008KT P6SM SCT011 BKN100
     FM020100 17010G17KT P6SM VCSH BKN008=

USA.gov is the U.S. government's official web portal to all federal, state and local government web resources and services.